Time,TemperatureF,DewpointF,PressureIn,WindDirection,WindDirectionDegrees,WindSpeedMPH,WindSpeedGustMPH,Humidity,HourlyPrecipIn,Conditions,Clouds,dailyrainin,SoftwareType,DateUTC
2013-03-23 00:00:00,40.1,23.0,30.02,North,9,1.0,2.0,50,0.00,,---,0.00,VWS V14.01,2013-03-23 04:00:00,
2013-03-23 00:05:00,39.9,22.3,30.02,North,9,0.0,2.0,49,0.00,,---,0.00,VWS V14.01,2013-03-23 04:05:00,
2013-03-23 00:10:00,39.5,19.4,30.01,North,9,0.0,2.0,44,0.00,,---,0.00,VWS V14.01,2013-03-23 04:10:00,
2013-03-23 00:15:00,39.6,19.0,30.01,North,9,0.0,3.0,43,0.00,,---,0.00,VWS V14.01,2013-03-23 04:15:00,
2013-03-23 00:20:00,39.9,19.8,30.02,North,9,0.0,0.0,44,0.00,,---,0.00,VWS V14.01,2013-03-23 04:20:00,
2013-03-23 00:25:00,39.7,21.1,30.02,North,9,2.0,2.0,47,0.00,,---,0.00,VWS V14.01,2013-03-23 04:25:00,
2013-03-23 00:30:00,39.5,18.3,30.02,North,9,1.0,3.0,42,0.00,,---,0.00,VWS V14.01,2013-03-23 04:30:00,
2013-03-23 00:35:00,39.5,19.9,30.02,North,9,0.0,1.0,45,0.00,,---,0.00,VWS V14.01,2013-03-23 04:35:00,
2013-03-23 00:40:00,39.5,18.9,30.02,North,9,2.0,3.0,43,0.00,,---,0.00,VWS V14.01,2013-03-23 04:40:00,
2013-03-23 00:45:00,39.8,22.2,30.02,North,9,0.0,4.0,49,0.00,,---,0.00,VWS V14.01,2013-03-23 04:45:00,
2013-03-23 00:50:00,39.5,19.9,30.02,North,9,0.0,3.0,45,0.00,,---,0.00,VWS V14.01,2013-03-23 04:50:00,
2013-03-23 00:55:00,39.5,21.5,30.01,North,9,0.0,1.0,48,0.00,,---,0.00,VWS V14.01,2013-03-23 04:55:00,
2013-03-23 01:00:00,39.6,23.0,30.01,North,9,2.0,2.0,51,0.00,,---,0.00,VWS V14.01,2013-03-23 05:00:00,
2013-03-23 01:05:00,39.6,23.9,30.01,North,9,1.0,2.0,53,0.00,,---,0.00,VWS V14.01,2013-03-23 05:05:00,
2013-03-23 01:10:00,39.2,21.2,30.01,North,9,0.0,1.0,48,0.00,,---,0.00,VWS V14.01,2013-03-23 05:10:00,
2013-03-23 01:15:00,39.2,21.2,30.01,North,9,1.0,3.0,48,0.00,,---,0.00,VWS V14.01,2013-03-23 05:15:00,
2013-03-23 01:20:00,38.9,21.4,30.01,North,9,0.0,1.0,49,0.00,,---,0.00,VWS V14.01,2013-03-23 05:20:00,
2013-03-23 01:25:00,39.1,19.6,30.01,North,9,0.0,0.0,45,0.00,,---,0.00,VWS V14.01,2013-03-23 05:25:00,
2013-03-23 01:30:00,39.5,25.1,30.01,North,9,0.0,3.0,56,0.00,,---,0.00,VWS V14.01,2013-03-23 05:30:00,
2013-03-23 01:35:00,39.4,22.8,30.01,North,9,0.0,1.0,51,0.00,,---,0.00,VWS V14.01,2013-03-23 05:35:00,
2013-03-23 01:40:00,39.2,22.6,30.00,North,9,0.0,0.0,51,0.00,,---,0.00,VWS V14.01,2013-03-23 05:40:00,
2013-03-23 01:45:00,39.1,23.0,30.00,North,9,2.0,2.0,52,0.00,,---,0.00,VWS V14.01,2013-03-23 05:45:00,
2013-03-23 01:50:00,39.3,21.8,30.00,North,9,0.0,2.0,49,0.00,,---,0.00,VWS V14.01,2013-03-23 05:50:00,
2013-03-23 01:55:00,39.4,24.6,30.00,North,9,0.0,2.0,55,0.00,,---,0.00,VWS V14.01,2013-03-23 05:55:00,
2013-03-23 02:00:00,39.3,24.5,30.00,North,9,0.0,0.0,55,0.00,,---,0.00,VWS V14.01,2013-03-23 06:00:00,
2013-03-23 02:05:00,39.3,22.2,30.01,North,9,0.0,2.0,50,0.00,,---,0.00,VWS V14.01,2013-03-23 06:05:00,
2013-03-23 02:10:00,39.5,22.4,30.00,North,9,0.0,1.0,50,0.00,,---,0.00,VWS V14.01,2013-03-23 06:10:00,
2013-03-23 02:15:00,39.6,22.0,30.00,North,9,0.0,1.0,49,0.00,,---,0.00,VWS V14.01,2013-03-23 06:15:00,
2013-03-23 02:20:00,39.5,23.4,30.00,North,9,1.0,2.0,52,0.00,,---,0.00,VWS V14.01,2013-03-23 06:20:00,
2013-03-23 02:25:00,39.3,24.5,30.01,North,9,0.0,2.0,55,0.00,,---,0.00,VWS V14.01,2013-03-23 06:25:00,
2013-03-23 02:30:00,39.3,24.1,30.00,North,9,0.0,1.0,54,0.00,,---,0.00,VWS V14.01,2013-03-23 06:30:00,
2013-03-23 02:35:00,39.3,24.9,30.00,North,9,2.0,2.0,56,0.00,,---,0.00,VWS V14.01,2013-03-23 06:35:00,
2013-03-23 02:40:00,39.2,25.3,30.00,North,9,0.0,3.0,57,0.00,,---,0.00,VWS V14.01,2013-03-23 06:40:00,
2013-03-23 02:45:00,39.1,24.7,30.00,North,9,0.0,0.0,56,0.00,,---,0.00,VWS V14.01,2013-03-23 06:45:00,
2013-03-23 02:50:00,39.1,22.5,30.00,North,9,0.0,0.0,51,0.00,,---,0.00,VWS V14.01,2013-03-23 06:50:00,
2013-03-23 02:55:00,39.2,24.0,30.00,North,9,0.0,0.0,54,0.00,,---,0.00,VWS V14.01,2013-03-23 06:55:00,
2013-03-23 03:00:00,39.2,24.4,29.99,North,9,0.0,0.0,55,0.00,,---,0.00,VWS V14.01,2013-03-23 07:00:00,
2013-03-23 03:05:00,39.3,25.4,29.99,North,9,0.0,0.0,57,0.00,,---,0.00,VWS V14.01,2013-03-23 07:05:00,
2013-03-23 03:10:00,39.3,25.4,29.99,North,9,0.0,0.0,57,0.00,,---,0.00,VWS V14.01,2013-03-23 07:10:00,
2013-03-23 03:15:00,39.4,22.8,29.99,North,9,0.0,0.0,51,0.00,,---,0.00,VWS V14.01,2013-03-23 07:15:00,
2013-03-23 03:20:00,39.5,23.8,29.99,North,9,0.0,0.0,53,0.00,,---,0.00,VWS V14.01,2013-03-23 07:20:00,
2013-03-23 03:25:00,39.5,21.9,29.98,North,9,0.0,0.0,49,0.00,,---,0.00,VWS V14.01,2013-03-23 07:25:00,
2013-03-23 03:30:00,39.4,23.2,29.98,North,9,0.0,0.0,52,0.00,,---,0.00,VWS V14.01,2013-03-23 07:30:00,
2013-03-23 03:35:00,39.3,23.6,29.98,North,9,0.0,0.0,53,0.00,,---,0.00,VWS V14.01,2013-03-23 07:35:00,
2013-03-23 03:40:00,39.2,22.1,29.98,North,9,1.0,2.0,50,0.00,,---,0.00,VWS V14.01,2013-03-23 07:40:00,
2013-03-23 03:45:00,39.6,23.4,29.98,North,9,0.0,3.0,52,0.00,,---,0.00,VWS V14.01,2013-03-23 07:45:00,
2013-03-23 03:50:00,39.5,23.4,29.98,North,9,0.0,0.0,52,0.00,,---,0.00,VWS V14.01,2013-03-23 07:50:00,
2013-03-23 03:55:00,39.3,23.2,29.99,North,9,0.0,2.0,52,0.00,,---,0.00,VWS V14.01,2013-03-23 07:55:00,
2013-03-23 04:00:00,39.2,21.7,29.99,North,9,0.0,0.0,49,0.00,,---,0.00,VWS V14.01,2013-03-23 08:00:00,
2013-03-23 04:05:00,39.4,23.2,29.99,North,9,0.0,0.0,52,0.00,,---,0.00,VWS V14.01,2013-03-23 08:05:00,
2013-03-23 04:10:00,39.4,23.7,29.99,North,9,0.0,0.0,53,0.00,,---,0.00,VWS V14.01,2013-03-23 08:10:00,
2013-03-23 04:15:00,39.3,25.8,29.99,North,9,0.0,0.0,58,0.00,,---,0.00,VWS V14.01,2013-03-23 08:15:00,
2013-03-23 04:20:00,39.0,23.8,29.99,North,9,0.0,0.0,54,0.00,,---,0.00,VWS V14.01,2013-03-23 08:20:00,
2013-03-23 04:25:00,38.9,25.8,29.98,North,9,1.0,1.0,59,0.00,,---,0.00,VWS V14.01,2013-03-23 08:25:00,
2013-03-23 04:30:00,38.5,24.2,29.99,North,9,0.0,2.0,56,0.00,,---,0.00,VWS V14.01,2013-03-23 08:30:00,
2013-03-23 04:35:00,37.8,24.0,29.98,North,9,0.0,0.0,57,0.00,,---,0.00,VWS V14.01,2013-03-23 08:35:00,
2013-03-23 04:40:00,37.4,22.3,29.98,North,9,0.0,2.0,54,0.00,,---,0.00,VWS V14.01,2013-03-23 08:40:00,
2013-03-23 04:45:00,36.8,23.0,29.98,North,9,0.0,0.0,57,0.00,,---,0.00,VWS V14.01,2013-03-23 08:45:00,
2013-03-23 04:50:00,36.3,20.8,29.98,North,9,0.0,0.0,53,0.00,,---,0.00,VWS V14.01,2013-03-23 08:50:00,
2013-03-23 04:55:00,36.1,22.8,29.98,North,9,2.0,3.0,58,0.00,,---,0.00,VWS V14.01,2013-03-23 08:55:00,
2013-03-23 05:00:00,36.1,22.8,29.98,North,9,0.0,3.0,58,0.00,,---,0.00,VWS V14.01,2013-03-23 09:00:00,
2013-03-23 05:05:00,36.2,24.1,29.98,North,9,1.0,2.0,61,0.00,,---,0.00,VWS V14.01,2013-03-23 09:05:00,
2013-03-23 05:10:00,36.1,22.8,29.98,North,9,0.0,2.0,58,0.00,,---,0.00,VWS V14.01,2013-03-23 09:10:00,
2013-03-23 05:15:00,36.1,24.0,29.98,North,9,1.0,1.0,61,0.00,,---,0.00,VWS V14.01,2013-03-23 09:15:00,
2013-03-23 05:20:00,35.8,23.7,29.98,North,9,0.0,2.0,61,0.00,,---,0.00,VWS V14.01,2013-03-23 09:20:00,
2013-03-23 05:25:00,35.7,23.2,29.98,North,9,1.0,2.0,60,0.00,,---,0.00,VWS V14.01,2013-03-23 09:25:00,
2013-03-23 05:30:00,35.8,21.2,29.98,North,9,0.0,2.0,55,0.00,,---,0.00,VWS V14.01,2013-03-23 09:30:00,
2013-03-23 05:35:00,36.0,23.5,29.98,North,9,1.0,3.0,60,0.00,,---,0.00,VWS V14.01,2013-03-23 09:35:00,
2013-03-23 05:40:00,35.9,22.2,29.97,North,9,0.0,2.0,57,0.00,,---,0.00,VWS V14.01,2013-03-23 09:40:00,
2013-03-23 05:45:00,35.8,21.2,29.98,North,9,0.0,1.0,55,0.00,,---,0.00,VWS V14.01,2013-03-23 09:45:00,
2013-03-23 05:50:00,35.9,22.6,29.98,North,9,0.0,0.0,58,0.00,,---,0.00,VWS V14.01,2013-03-23 09:50:00,
2013-03-23 05:55:00,35.8,23.3,29.98,North,9,0.0,0.0,60,0.00,,---,0.00,VWS V14.01,2013-03-23 09:55:00,
2013-03-23 06:00:00,35.7,21.1,29.99,North,9,2.0,2.0,55,0.00,,---,0.00,VWS V14.01,2013-03-23 10:00:00,
2013-03-23 06:05:00,35.4,21.7,29.99,North,9,0.0,2.0,57,0.00,,---,0.00,VWS V14.01,2013-03-23 10:05:00,
2013-03-23 06:10:00,35.5,22.6,29.99,North,9,0.0,0.0,59,0.00,,---,0.00,VWS V14.01,2013-03-23 10:10:00,
2013-03-23 06:15:00,35.6,23.1,29.99,North,9,0.0,1.0,60,0.00,,---,0.00,VWS V14.01,2013-03-23 10:15:00,
2013-03-23 06:20:00,35.7,21.6,30.00,North,9,0.0,2.0,56,0.00,,---,0.00,VWS V14.01,2013-03-23 10:20:00,
2013-03-23 06:25:00,36.1,21.5,30.00,North,9,0.0,0.0,55,0.00,,---,0.00,VWS V14.01,2013-03-23 10:25:00,
2013-03-23 06:30:00,36.4,25.0,29.99,North,9,0.0,1.0,63,0.00,,---,0.00,VWS V14.01,2013-03-23 10:30:00,
2013-03-23 06:35:00,36.4,23.9,29.99,North,9,0.0,1.0,60,0.00,,---,0.00,VWS V14.01,2013-03-23 10:35:00,
2013-03-23 06:40:00,36.4,23.5,29.99,North,9,0.0,0.0,59,0.00,,---,0.00,VWS V14.01,2013-03-23 10:40:00,
2013-03-23 06:45:00,37.1,23.3,29.99,North,9,0.0,0.0,57,0.00,,---,0.00,VWS V14.01,2013-03-23 10:45:00,
2013-03-23 06:50:00,37.1,24.9,29.99,North,9,0.0,0.0,61,0.00,,---,0.00,VWS V14.01,2013-03-23 10:50:00,
2013-03-23 06:55:00,36.9,25.1,29.99,North,9,0.0,0.0,62,0.00,,---,0.00,VWS V14.01,2013-03-23 10:55:00,
2013-03-23 07:00:00,36.9,23.9,29.99,North,9,0.0,0.0,59,0.00,,---,0.00,VWS V14.01,2013-03-23 11:00:00,
2013-03-23 07:05:00,36.9,24.7,29.99,North,9,0.0,0.0,61,0.00,,---,0.00,VWS V14.01,2013-03-23 11:05:00,
2013-03-23 07:10:00,36.8,24.6,30.00,North,9,0.0,0.0,61,0.00,,---,0.00,VWS V14.01,2013-03-23 11:10:00,
2013-03-23 07:15:00,36.7,25.3,30.00,North,9,2.0,3.0,63,0.00,,---,0.00,VWS V14.01,2013-03-23 11:15:00,
2013-03-23 07:20:00,36.8,24.6,30.00,North,9,2.0,3.0,61,0.00,,---,0.00,VWS V14.01,2013-03-23 11:20:00,
2013-03-23 07:25:00,37.1,24.9,30.00,North,9,0.0,2.0,61,0.00,,---,0.00,VWS V14.01,2013-03-23 11:25:00,
2013-03-23 07:30:00,37.6,22.5,30.00,North,9,1.0,2.0,54,0.00,,---,0.00,VWS V14.01,2013-03-23 11:30:00,
2013-03-23 07:35:00,37.7,23.0,30.01,North,9,0.0,1.0,55,0.00,,---,0.00,VWS V14.01,2013-03-23 11:35:00,
2013-03-23 07:40:00,37.8,23.1,30.00,North,9,0.0,0.0,55,0.00,,---,0.00,VWS V14.01,2013-03-23 11:40:00,
2013-03-23 07:45:00,38.1,25.9,30.01,North,9,2.0,3.0,61,0.00,,---,0.00,VWS V14.01,2013-03-23 11:45:00,
2013-03-23 07:50:00,38.0,25.8,30.02,North,9,2.0,2.0,61,0.00,,---,0.00,VWS V14.01,2013-03-23 11:50:00,
2013-03-23 07:55:00,38.2,24.3,30.01,North,9,0.0,2.0,57,0.00,,---,0.00,VWS V14.01,2013-03-23 11:55:00,
2013-03-23 08:00:00,38.4,25.7,30.01,North,9,0.0,0.0,60,0.00,,---,0.00,VWS V14.01,2013-03-23 12:00:00,
2013-03-23 08:05:00,38.7,25.2,30.00,North,9,0.0,0.0,58,0.00,,---,0.00,VWS V14.01,2013-03-23 12:05:00,
2013-03-23 08:10:00,38.8,24.0,30.01,North,9,0.0,2.0,55,0.00,,---,0.00,VWS V14.01,2013-03-23 12:10:00,
2013-03-23 08:15:00,38.8,24.9,30.01,North,9,0.0,0.0,57,0.00,,---,0.00,VWS V14.01,2013-03-23 12:15:00,
2013-03-23 08:20:00,38.9,25.4,30.01,North,9,0.0,0.0,58,0.00,,---,0.00,VWS V14.01,2013-03-23 12:20:00,
2013-03-23 08:25:00,39.2,24.8,30.02,North,9,0.0,0.0,56,0.00,,---,0.00,VWS V14.01,2013-03-23 12:25:00,
2013-03-23 08:30:00,39.5,26.0,30.02,North,9,0.0,0.0,58,0.00,,---,0.00,VWS V14.01,2013-03-23 12:30:00,
2013-03-23 08:35:00,39.8,24.1,30.02,North,9,0.0,0.0,53,0.00,,---,0.00,VWS V14.01,2013-03-23 12:35:00,
2013-03-23 08:40:00,40.0,24.3,30.02,North,9,0.0,0.0,53,0.00,,---,0.00,VWS V14.01,2013-03-23 12:40:00,
2013-03-23 08:45:00,40.2,20.6,30.02,North,9,0.0,1.0,45,0.00,,---,0.00,VWS V14.01,2013-03-23 12:45:00,
2013-03-23 08:50:00,40.4,20.8,30.02,North,9,0.0,0.0,45,0.00,,---,0.00,VWS V14.01,2013-03-23 12:50:00,
2013-03-23 08:55:00,40.5,20.9,30.02,North,9,0.0,0.0,45,0.00,,---,0.00,VWS V14.01,2013-03-23 12:55:00,
2013-03-23 09:00:00,40.5,23.3,30.02,North,9,0.0,0.0,50,0.00,,---,0.00,VWS V14.01,2013-03-23 13:00:00,
2013-03-23 09:05:00,40.5,24.7,30.03,North,9,0.0,0.0,53,0.00,,---,0.00,VWS V14.01,2013-03-23 13:05:00,
2013-03-23 09:10:00,40.4,22.8,30.03,North,9,0.0,2.0,49,0.00,,---,0.00,VWS V14.01,2013-03-23 13:10:00,
2013-03-23 09:15:00,40.4,22.8,30.03,North,9,0.0,2.0,49,0.00,,---,0.00,VWS V14.01,2013-03-23 13:15:00,
2013-03-23 09:20:00,40.4,21.3,30.03,North,9,0.0,1.0,46,0.00,,---,0.00,VWS V14.01,2013-03-23 13:20:00,
2013-03-23 09:25:00,40.5,21.4,30.03,North,9,0.0,0.0,46,0.00,,---,0.00,VWS V14.01,2013-03-23 13:25:00,
2013-03-23 09:30:00,40.6,19.9,30.03,North,9,0.0,0.0,43,0.00,,---,0.00,VWS V14.01,2013-03-23 13:30:00,
2013-03-23 09:35:00,40.7,20.5,30.04,North,9,0.0,0.0,44,0.00,,---,0.00,VWS V14.01,2013-03-23 13:35:00,
2013-03-23 09:40:00,40.7,23.0,30.04,NNE,24,1.0,3.0,49,0.00,,---,0.00,VWS V14.01,2013-03-23 13:40:00,
2013-03-23 09:45:00,40.6,24.4,30.04,NNE,24,0.0,2.0,52,0.00,,---,0.00,VWS V14.01,2013-03-23 13:45:00,
2013-03-23 09:50:00,40.6,23.9,30.04,NNE,24,1.0,3.0,51,0.00,,---,0.00,VWS V14.01,2013-03-23 13:50:00,
2013-03-23 09:55:00,40.5,21.9,30.04,NNE,24,2.0,3.0,47,0.00,,---,0.00,VWS V14.01,2013-03-23 13:55:00,
2013-03-23 10:00:00,40.5,22.4,30.04,NNE,24,0.0,3.0,48,0.00,,---,0.00,VWS V14.01,2013-03-23 14:00:00,
2013-03-23 10:05:00,40.6,21.5,30.04,NNE,24,0.0,2.0,46,0.00,,---,0.00,VWS V14.01,2013-03-23 14:05:00,
2013-03-23 10:10:00,40.6,21.5,30.04,NNE,24,0.0,0.0,46,0.00,,---,0.00,VWS V14.01,2013-03-23 14:10:00,
2013-03-23 10:15:00,40.7,20.5,30.04,NNE,24,0.0,0.0,44,0.00,,---,0.00,VWS V14.01,2013-03-23 14:15:00,
2013-03-23 10:20:00,40.9,21.2,30.04,NNE,24,0.0,0.0,45,0.00,,---,0.00,VWS V14.01,2013-03-23 14:20:00,
2013-03-23 10:25:00,41.0,20.8,30.04,NNE,24,0.0,0.0,44,0.00,,---,0.00,VWS V14.01,2013-03-23 14:25:00,
2013-03-23 10:30:00,41.0,19.1,30.04,NNE,24,0.0,0.0,41,0.00,,---,0.00,VWS V14.01,2013-03-23 14:30:00,
2013-03-23 10:35:00,41.2,20.4,30.04,NNE,24,0.0,0.0,43,0.00,,---,0.00,VWS V14.01,2013-03-23 14:35:00,
2013-03-23 10:40:00,41.4,20.6,30.04,NNE,24,0.0,0.0,43,0.00,,---,0.00,VWS V14.01,2013-03-23 14:40:00,
2013-03-23 10:45:00,41.5,20.7,30.04,NNE,24,0.0,0.0,43,0.00,,---,0.00,VWS V14.01,2013-03-23 14:45:00,
2013-03-23 10:50:00,41.5,20.7,30.04,NNE,24,0.0,0.0,43,0.00,,---,0.00,VWS V14.01,2013-03-23 14:50:00,
2013-03-23 10:55:00,41.8,23.1,30.04,NNE,24,1.0,3.0,47,0.00,,---,0.00,VWS V14.01,2013-03-23 14:55:00,
2013-03-23 11:00:00,42.0,23.2,30.03,SE,136,4.0,5.0,47,0.00,,---,0.00,VWS V14.01,2013-03-23 15:00:00,
2013-03-23 11:05:00,42.1,22.3,30.04,SE,139,0.0,5.0,45,0.00,,---,0.00,VWS V14.01,2013-03-23 15:05:00,
2013-03-23 11:10:00,42.1,21.8,30.04,SE,139,0.0,0.0,44,0.00,,---,0.00,VWS V14.01,2013-03-23 15:10:00,
2013-03-23 11:15:00,42.2,22.4,30.04,SE,139,1.0,2.0,45,0.00,,---,0.00,VWS V14.01,2013-03-23 15:15:00,
2013-03-23 11:20:00,42.0,20.6,30.04,SE,139,0.0,2.0,42,0.00,,---,0.00,VWS V14.01,2013-03-23 15:20:00,
2013-03-23 11:25:00,42.1,19.5,30.05,SE,139,0.0,4.0,40,0.00,,---,0.00,VWS V14.01,2013-03-23 15:25:00,
2013-03-23 11:30:00,42.2,20.2,30.04,SSE,148,1.0,5.0,41,0.00,,---,0.00,VWS V14.01,2013-03-23 15:30:00,
2013-03-23 11:35:00,42.1,21.2,30.04,SSE,148,2.0,4.0,43,0.00,,---,0.00,VWS V14.01,2013-03-23 15:35:00,
2013-03-23 11:40:00,42.2,21.9,30.04,SSE,148,1.0,4.0,44,0.00,,---,0.00,VWS V14.01,2013-03-23 15:40:00,
2013-03-23 11:45:00,42.6,22.2,30.04,SW,232,3.0,6.0,44,0.00,,---,0.00,VWS V14.01,2013-03-23 15:45:00,
2013-03-23 11:50:00,42.8,22.4,30.03,SW,222,5.0,6.0,44,0.00,,---,0.00,VWS V14.01,2013-03-23 15:50:00,
2013-03-23 11:55:00,42.9,22.0,30.03,West,278,4.0,5.0,43,0.00,,---,0.00,VWS V14.01,2013-03-23 15:55:00,
2013-03-23 12:00:00,43.3,22.3,30.03,South,171,2.0,6.0,43,0.00,,---,0.00,VWS V14.01,2013-03-23 16:00:00,
2013-03-23 12:05:00,43.6,22.6,30.02,South,184,3.0,5.0,43,0.00,,---,0.00,VWS V14.01,2013-03-23 16:05:00,
2013-03-23 12:10:00,43.8,21.6,30.03,South,180,0.0,6.0,41,0.00,,---,0.00,VWS V14.01,2013-03-23 16:10:00,
2013-03-23 12:15:00,44.0,20.6,30.02,South,178,0.0,5.0,39,0.00,,---,0.00,VWS V14.01,2013-03-23 16:15:00,
2013-03-23 12:20:00,44.6,22.4,30.02,SSE,157,7.0,7.0,41,0.00,,---,0.00,VWS V14.01,2013-03-23 16:20:00,
2013-03-23 12:25:00,45.3,23.0,30.02,SW,230,0.0,8.0,41,0.00,,---,0.00,VWS V14.01,2013-03-23 16:25:00,
2013-03-23 12:30:00,45.8,23.5,30.02,SSW,195,1.0,5.0,41,0.00,,---,0.00,VWS V14.01,2013-03-23 16:30:00,
2013-03-23 12:35:00,45.5,21.4,30.01,WSW,238,4.0,9.0,38,0.00,,---,0.00,VWS V14.01,2013-03-23 16:35:00,
2013-03-23 12:40:00,45.9,23.5,30.01,ENE,78,3.0,6.0,41,0.00,,---,0.00,VWS V14.01,2013-03-23 16:40:00,
2013-03-23 12:45:00,46.0,23.0,30.00,SSW,200,4.0,7.0,40,0.00,,---,0.00,VWS V14.01,2013-03-23 16:45:00,
2013-03-23 12:50:00,46.1,23.1,30.01,South,180,1.0,7.0,40,0.00,,---,0.00,VWS V14.01,2013-03-23 16:50:00,
2013-03-23 12:55:00,46.0,23.6,30.00,SSE,154,4.0,5.0,41,0.00,,---,0.00,VWS V14.01,2013-03-23 16:55:00,
2013-03-23 13:00:00,46.1,22.5,30.00,SSE,148,0.0,7.0,39,0.00,,---,0.00,VWS V14.01,2013-03-23 17:00:00,
2013-03-23 13:05:00,46.8,26.0,30.00,South,178,6.0,8.0,44,0.00,,---,0.00,VWS V14.01,2013-03-23 17:05:00,
2013-03-23 13:10:00,46.7,24.8,30.00,SW,225,6.0,7.0,42,0.00,,---,0.00,VWS V14.01,2013-03-23 17:10:00,
2013-03-23 13:15:00,46.3,24.5,30.00,SSW,202,3.0,6.0,42,0.00,,---,0.00,VWS V14.01,2013-03-23 17:15:00,
2013-03-23 13:20:00,46.7,26.0,29.99,SW,236,6.0,7.0,44,0.00,,---,0.00,VWS V14.01,2013-03-23 17:20:00,
2013-03-23 13:25:00,47.0,26.2,29.99,SSW,200,0.0,8.0,44,0.00,,---,0.00,VWS V14.01,2013-03-23 17:25:00,
2013-03-23 13:30:00,47.1,25.8,29.99,SW,222,2.0,7.0,43,0.00,,---,0.00,VWS V14.01,2013-03-23 17:30:00,
2013-03-23 13:35:00,47.9,27.0,29.99,South,179,4.0,5.0,44,0.00,,---,0.00,VWS V14.01,2013-03-23 17:35:00,
2013-03-23 13:40:00,48.4,29.1,29.99,SSW,198,6.0,8.0,47,0.00,,---,0.00,VWS V14.01,2013-03-23 17:40:00,
2013-03-23 13:45:00,48.3,29.5,29.99,SSW,207,8.0,10.0,48,0.00,,---,0.00,VWS V14.01,2013-03-23 17:45:00,
2013-03-23 13:50:00,48.1,28.3,29.98,South,181,4.0,8.0,46,0.00,,---,0.00,VWS V14.01,2013-03-23 17:50:00,
2013-03-23 13:55:00,48.3,30.0,29.98,SE,138,0.0,6.0,49,0.00,,---,0.00,VWS V14.01,2013-03-23 17:55:00,
2013-03-23 14:00:00,48.7,29.4,29.98,SSW,205,1.0,5.0,47,0.00,,---,0.00,VWS V14.01,2013-03-23 18:00:00,
2013-03-23 14:05:00,49.1,30.8,29.97,SE,134,5.0,5.0,49,0.00,,---,0.00,VWS V14.01,2013-03-23 18:05:00,
2013-03-23 14:10:00,49.1,29.8,29.97,SSW,211,4.0,8.0,47,0.00,,---,0.00,VWS V14.01,2013-03-23 18:10:00,
2013-03-23 14:15:00,49.0,31.2,29.97,SSW,213,1.0,9.0,50,0.00,,---,0.00,VWS V14.01,2013-03-23 18:15:00,
2013-03-23 14:20:00,49.9,31.5,29.96,SW,218,5.0,12.0,49,0.00,,---,0.00,VWS V14.01,2013-03-23 18:20:00,
2013-03-23 14:25:00,50.2,31.3,29.96,SW,220,10.0,10.0,48,0.00,,---,0.00,VWS V14.01,2013-03-23 18:25:00,
2013-03-23 14:30:00,50.4,31.5,29.96,South,185,2.0,11.0,48,0.00,,---,0.00,VWS V14.01,2013-03-23 18:30:00,
2013-03-23 14:35:00,50.1,32.2,29.96,SE,126,6.0,6.0,50,0.00,,---,0.00,VWS V14.01,2013-03-23 18:35:00,
2013-03-23 14:40:00,50.5,31.0,29.96,WSW,239,3.0,7.0,47,0.00,,---,0.00,VWS V14.01,2013-03-23 18:40:00,
2013-03-23 14:45:00,51.2,32.7,29.96,South,173,4.0,7.0,49,0.00,,---,0.00,VWS V14.01,2013-03-23 18:45:00,
2013-03-23 14:50:00,51.2,30.0,29.95,SSW,210,0.0,9.0,44,0.00,,---,0.00,VWS V14.01,2013-03-23 18:50:00,
2013-03-23 14:55:00,51.5,31.4,29.95,South,173,2.0,6.0,46,0.00,,---,0.00,VWS V14.01,2013-03-23 18:55:00,
2013-03-23 15:00:00,52.0,31.9,29.95,SW,220,4.0,12.0,46,0.00,,---,0.00,VWS V14.01,2013-03-23 19:00:00,
2013-03-23 15:05:00,51.7,33.2,29.94,SSE,168,6.0,8.0,49,0.00,,---,0.00,VWS V14.01,2013-03-23 19:05:00,
2013-03-23 15:10:00,52.5,32.9,29.94,SE,125,1.0,10.0,47,0.00,,---,0.00,VWS V14.01,2013-03-23 19:10:00,
2013-03-23 15:15:00,53.6,34.4,29.94,South,172,5.0,9.0,48,0.00,,---,0.00,VWS V14.01,2013-03-23 19:15:00,
2013-03-23 15:20:00,52.9,32.2,29.94,SSW,211,7.0,8.0,45,0.00,,---,0.00,VWS V14.01,2013-03-23 19:20:00,
2013-03-23 15:25:00,53.0,34.4,29.94,SSE,165,4.0,7.0,49,0.00,,---,0.00,VWS V14.01,2013-03-23 19:25:00,
2013-03-23 15:30:00,53.0,32.2,29.94,South,187,3.0,8.0,45,0.00,,---,0.00,VWS V14.01,2013-03-23 19:30:00,
2013-03-23 15:35:00,52.7,33.0,29.94,SE,133,4.0,5.0,47,0.00,,---,0.00,VWS V14.01,2013-03-23 19:35:00,
2013-03-23 15:40:00,52.8,33.2,29.94,SSW,194,4.0,6.0,47,0.00,,---,0.00,VWS V14.01,2013-03-23 19:40:00,
2013-03-23 15:45:00,53.0,32.2,29.94,SSE,155,2.0,7.0,45,0.00,,---,0.00,VWS V14.01,2013-03-23 19:45:00,
2013-03-23 15:50:00,52.9,33.8,29.93,SE,131,5.0,6.0,48,0.00,,---,0.00,VWS V14.01,2013-03-23 19:50:00,
2013-03-23 15:55:00,52.9,32.7,29.93,SE,132,4.0,7.0,46,0.00,,---,0.00,VWS V14.01,2013-03-23 19:55:00,
2013-03-23 16:00:00,53.3,33.6,29.93,East,83,4.0,6.0,47,0.00,,---,0.00,VWS V14.01,2013-03-23 20:00:00,
2013-03-23 16:05:00,53.7,33.4,29.93,SE,144,2.0,5.0,46,0.00,,---,0.00,VWS V14.01,2013-03-23 20:05:00,
2013-03-23 16:10:00,53.7,32.9,29.93,SE,146,2.0,7.0,45,0.00,,---,0.00,VWS V14.01,2013-03-23 20:10:00,
2013-03-23 16:15:00,53.9,32.5,29.92,South,180,2.0,8.0,44,0.00,,---,0.00,VWS V14.01,2013-03-23 20:15:00,
2013-03-23 16:20:00,53.5,33.2,29.92,SSW,202,6.0,7.0,46,0.00,,---,0.00,VWS V14.01,2013-03-23 20:20:00,
2013-03-23 16:25:00,53.5,33.2,29.92,SW,226,6.0,8.0,46,0.00,,---,0.00,VWS V14.01,2013-03-23 20:25:00,
2013-03-23 16:30:00,53.2,32.4,29.92,West,278,2.0,6.0,45,0.00,,---,0.00,VWS V14.01,2013-03-23 20:30:00,
2013-03-23 16:35:00,53.5,33.2,29.92,SW,216,5.0,8.0,46,0.00,,---,0.00,VWS V14.01,2013-03-23 20:35:00,
2013-03-23 16:40:00,53.3,33.1,29.92,SSE,159,4.0,7.0,46,0.00,,---,0.00,VWS V14.01,2013-03-23 20:40:00,
2013-03-23 16:45:00,53.2,33.5,29.92,SSW,200,5.0,6.0,47,0.00,,---,0.00,VWS V14.01,2013-03-23 20:45:00,
2013-03-23 16:50:00,53.3,33.6,29.92,SE,125,0.0,5.0,47,0.00,,---,0.00,VWS V14.01,2013-03-23 20:50:00,
2013-03-23 16:55:00,53.3,33.6,29.91,SE,133,2.0,4.0,47,0.00,,---,0.00,VWS V14.01,2013-03-23 20:55:00,
2013-03-23 17:00:00,53.2,33.5,29.91,SE,139,4.0,5.0,47,0.00,,---,0.00,VWS V14.01,2013-03-23 21:00:00,
2013-03-23 17:05:00,53.5,33.2,29.91,South,182,3.0,4.0,46,0.00,,---,0.00,VWS V14.01,2013-03-23 21:05:00,
2013-03-23 17:10:00,53.7,32.9,29.91,SE,132,0.0,5.0,45,0.00,,---,0.00,VWS V14.01,2013-03-23 21:10:00,
2013-03-23 17:15:00,54.2,32.8,29.91,SE,128,0.0,4.0,44,0.00,,---,0.00,VWS V14.01,2013-03-23 21:15:00,
2013-03-23 17:20:00,54.7,33.2,29.91,SE,135,2.0,4.0,44,0.00,,---,0.00,VWS V14.01,2013-03-23 21:20:00,
2013-03-23 17:25:00,54.4,33.0,29.91,NW,313,2.0,4.0,44,0.00,,---,0.00,VWS V14.01,2013-03-23 21:25:00,
2013-03-23 17:30:00,54.3,32.9,29.91,NW,313,1.0,4.0,44,0.00,,---,0.00,VWS V14.01,2013-03-23 21:30:00,
2013-03-23 17:35:00,54.1,33.2,29.90,SSW,203,0.0,4.0,45,0.00,,---,0.00,VWS V14.01,2013-03-23 21:35:00,
2013-03-23 17:40:00,53.8,33.0,29.91,SSW,194,0.0,2.0,45,0.00,,---,0.00,VWS V14.01,2013-03-23 21:40:00,
2013-03-23 17:45:00,53.6,32.8,29.91,SE,134,1.0,4.0,45,0.00,,---,0.00,VWS V14.01,2013-03-23 21:45:00,
2013-03-23 17:50:00,53.7,33.4,29.90,SE,134,0.0,2.0,46,0.00,,---,0.00,VWS V14.01,2013-03-23 21:50:00,
2013-03-23 17:55:00,54.0,34.2,29.90,SE,131,1.0,4.0,47,0.00,,---,0.00,VWS V14.01,2013-03-23 21:55:00,
2013-03-23 18:00:00,54.0,34.8,29.90,South,191,4.0,5.0,48,0.00,,---,0.00,VWS V14.01,2013-03-23 22:00:00,
2013-03-23 18:05:00,53.8,34.1,29.90,SSW,205,1.0,4.0,47,0.00,,---,0.00,VWS V14.01,2013-03-23 22:05:00,
2013-03-23 18:10:00,53.7,33.4,29.90,South,190,0.0,3.0,46,0.00,,---,0.00,VWS V14.01,2013-03-23 22:10:00,
2013-03-23 18:15:00,53.9,33.6,29.90,SSE,156,1.0,6.0,46,0.00,,---,0.00,VWS V14.01,2013-03-23 22:15:00,
2013-03-23 18:20:00,53.8,34.1,29.90,South,173,0.0,5.0,47,0.00,,---,0.00,VWS V14.01,2013-03-23 22:20:00,
2013-03-23 18:25:00,53.9,33.6,29.90,South,173,0.0,2.0,46,0.00,,---,0.00,VWS V14.01,2013-03-23 22:25:00,
2013-03-23 18:30:00,54.0,33.7,29.90,East,88,2.0,5.0,46,0.00,,---,0.00,VWS V14.01,2013-03-23 22:30:00,
2013-03-23 18:35:00,53.8,33.5,29.90,East,94,2.0,4.0,46,0.00,,---,0.00,VWS V14.01,2013-03-23 22:35:00,
2013-03-23 18:40:00,53.9,34.2,29.90,East,84,3.0,4.0,47,0.00,,---,0.00,VWS V14.01,2013-03-23 22:40:00,
2013-03-23 18:45:00,53.6,33.3,29.90,ENE,61,3.0,5.0,46,0.00,,---,0.00,VWS V14.01,2013-03-23 22:45:00,
2013-03-23 18:50:00,53.3,33.1,29.90,ENE,62,0.0,3.0,46,0.00,,---,0.00,VWS V14.01,2013-03-23 22:50:00,
2013-03-23 18:55:00,52.9,33.8,29.91,ENE,62,0.0,2.0,48,0.00,,---,0.00,VWS V14.01,2013-03-23 22:55:00,
2013-03-23 19:00:00,52.7,34.1,29.91,ENE,62,1.0,3.0,49,0.00,,---,0.00,VWS V14.01,2013-03-23 23:00:00,
2013-03-23 19:05:00,52.5,33.9,29.91,ENE,62,0.0,1.0,49,0.00,,---,0.00,VWS V14.01,2013-03-23 23:05:00,
2013-03-23 19:10:00,52.4,33.8,29.92,ENE,63,0.0,3.0,49,0.00,,---,0.00,VWS V14.01,2013-03-23 23:10:00,
2013-03-23 19:15:00,52.2,34.6,29.91,ENE,63,0.0,1.0,51,0.00,,---,0.00,VWS V14.01,2013-03-23 23:15:00,
2013-03-23 19:20:00,52.0,33.5,29.92,ENE,63,0.0,2.0,49,0.00,,---,0.00,VWS V14.01,2013-03-23 23:20:00,
2013-03-23 19:25:00,51.8,34.3,29.92,ENE,63,1.0,1.0,51,0.00,,---,0.00,VWS V14.01,2013-03-23 23:25:00,
2013-03-23 19:30:00,50.7,36.5,29.91,ENE,63,2.0,3.0,58,0.00,,---,0.00,VWS V14.01,2013-03-23 23:30:00,
2013-03-23 19:35:00,49.2,35.9,29.92,ENE,63,2.0,3.0,60,0.00,,---,0.00,VWS V14.01,2013-03-23 23:35:00,
2013-03-23 19:40:00,48.2,36.2,29.92,ENE,63,1.0,3.0,63,0.00,,---,0.00,VWS V14.01,2013-03-23 23:40:00,
2013-03-23 19:45:00,47.4,35.5,29.91,ENE,63,0.0,3.0,63,0.00,,---,0.00,VWS V14.01,2013-03-23 23:45:00,
2013-03-23 19:50:00,46.7,35.2,29.92,ENE,63,0.0,1.0,64,0.00,,---,0.00,VWS V14.01,2013-03-23 23:50:00,
2013-03-23 19:55:00,46.1,35.0,29.92,ENE,63,0.0,0.0,65,0.00,,---,0.00,VWS V14.01,2013-03-23 23:55:00,
2013-03-23 20:00:00,45.6,35.3,29.93,ENE,63,0.0,0.0,67,0.00,,---,0.00,VWS V14.01,2013-03-24 00:00:00,
2013-03-23 20:05:00,45.3,33.5,29.93,ENE,63,0.0,1.0,63,0.00,,---,0.00,VWS V14.01,2013-03-24 00:05:00,
2013-03-23 20:10:00,45.5,33.7,29.92,ENE,63,0.0,1.0,63,0.00,,---,0.00,VWS V14.01,2013-03-24 00:10:00,
2013-03-23 20:15:00,44.8,34.5,29.92,ENE,63,0.0,0.0,67,0.00,,---,0.00,VWS V14.01,2013-03-24 00:15:00,
2013-03-23 20:20:00,44.2,34.0,29.92,ENE,63,0.0,0.0,67,0.00,,---,0.00,VWS V14.01,2013-03-24 00:20:00,
2013-03-23 20:25:00,43.7,34.6,29.92,ENE,63,0.0,0.0,70,0.00,,---,0.00,VWS V14.01,2013-03-24 00:25:00,
2013-03-23 20:30:00,43.2,33.7,29.93,ENE,63,0.0,0.0,69,0.00,,---,0.00,VWS V14.01,2013-03-24 00:30:00,
2013-03-23 20:35:00,42.9,33.4,29.92,ENE,63,0.0,0.0,69,0.00,,---,0.00,VWS V14.01,2013-03-24 00:35:00,
2013-03-23 20:40:00,42.9,34.2,29.92,ENE,63,0.0,0.0,71,0.00,,---,0.00,VWS V14.01,2013-03-24 00:40:00,
2013-03-23 20:45:00,42.7,34.3,29.93,ENE,63,0.0,0.0,72,0.00,,---,0.00,VWS V14.01,2013-03-24 00:45:00,
2013-03-23 20:50:00,42.5,34.1,29.93,ENE,63,0.0,0.0,72,0.00,,---,0.00,VWS V14.01,2013-03-24 00:50:00,
2013-03-23 20:55:00,42.3,34.6,29.93,ENE,63,0.0,0.0,74,0.00,,---,0.00,VWS V14.01,2013-03-24 00:55:00,
2013-03-23 21:00:00,42.4,33.3,29.93,ENE,63,1.0,3.0,70,0.00,,---,0.00,VWS V14.01,2013-03-24 01:00:00,
2013-03-23 21:05:00,42.4,33.7,29.93,ENE,63,0.0,2.0,71,0.00,,---,0.00,VWS V14.01,2013-03-24 01:05:00,
2013-03-23 21:10:00,42.3,33.2,29.94,ENE,63,0.0,3.0,70,0.00,,---,0.00,VWS V14.01,2013-03-24 01:10:00,
2013-03-23 21:15:00,42.3,34.3,29.94,ENE,63,0.0,0.0,73,0.00,,---,0.00,VWS V14.01,2013-03-24 01:15:00,
2013-03-23 21:20:00,42.2,34.2,29.93,ENE,63,0.0,0.0,73,0.00,,---,0.00,VWS V14.01,2013-03-24 01:20:00,
2013-03-23 21:25:00,41.7,33.3,29.93,ENE,63,0.0,1.0,72,0.00,,---,0.00,VWS V14.01,2013-03-24 01:25:00,
2013-03-23 21:30:00,41.8,34.8,29.93,ENE,63,0.0,0.0,76,0.00,,---,0.00,VWS V14.01,2013-03-24 01:30:00,
2013-03-23 21:35:00,41.6,33.3,29.94,ENE,63,0.0,0.0,72,0.00,,---,0.00,VWS V14.01,2013-03-24 01:35:00,
2013-03-23 21:40:00,41.5,34.2,29.94,ENE,63,0.0,0.0,75,0.00,,---,0.00,VWS V14.01,2013-03-24 01:40:00,
2013-03-23 21:45:00,41.5,34.2,29.94,ENE,63,0.0,2.0,75,0.00,,---,0.00,VWS V14.01,2013-03-24 01:45:00,
2013-03-23 21:50:00,41.5,33.8,29.94,ENE,63,1.0,2.0,74,0.00,,---,0.00,VWS V14.01,2013-03-24 01:50:00,
2013-03-23 21:55:00,41.6,33.6,29.94,ENE,63,0.0,1.0,73,0.00,,---,0.00,VWS V14.01,2013-03-24 01:55:00,
2013-03-23 22:00:00,41.6,34.9,29.94,ENE,63,0.0,0.0,77,0.00,,---,0.00,VWS V14.01,2013-03-24 02:00:00,
2013-03-23 22:05:00,41.9,34.2,29.93,ENE,63,0.0,0.0,74,0.00,,---,0.00,VWS V14.01,2013-03-24 02:05:00,
2013-03-23 22:10:00,42.1,34.8,29.93,ENE,63,0.0,0.0,75,0.00,,---,0.00,VWS V14.01,2013-03-24 02:10:00,
2013-03-23 22:15:00,42.2,34.2,29.93,ENE,63,0.0,0.0,73,0.00,,---,0.00,VWS V14.01,2013-03-24 02:15:00,
2013-03-23 22:20:00,42.4,35.0,29.93,ENE,63,0.0,0.0,75,0.00,,---,0.00,VWS V14.01,2013-03-24 02:20:00,
2013-03-23 22:25:00,42.4,34.0,29.93,ENE,63,0.0,2.0,72,0.00,,---,0.00,VWS V14.01,2013-03-24 02:25:00,
2013-03-23 22:30:00,42.4,35.0,29.94,ENE,63,0.0,0.0,75,0.00,,---,0.00,VWS V14.01,2013-03-24 02:30:00,
2013-03-23 22:35:00,42.2,34.5,29.94,ENE,63,0.0,0.0,74,0.00,,---,0.00,VWS V14.01,2013-03-24 02:35:00,
2013-03-23 22:40:00,42.1,35.4,29.93,ENE,63,1.0,3.0,77,0.00,,---,0.00,VWS V14.01,2013-03-24 02:40:00,
2013-03-23 22:45:00,41.9,34.2,29.93,ENE,63,0.0,2.0,74,0.00,,---,0.00,VWS V14.01,2013-03-24 02:45:00,
2013-03-23 22:50:00,42.1,34.4,29.92,ENE,63,0.0,0.0,74,0.00,,---,0.00,VWS V14.01,2013-03-24 02:50:00,
2013-03-23 22:55:00,42.7,35.0,29.92,ENE,63,0.0,2.0,74,0.00,,---,0.00,VWS V14.01,2013-03-24 02:55:00,
2013-03-23 23:00:00,42.8,35.4,29.92,ENE,63,0.0,0.0,75,0.00,,---,0.00,VWS V14.01,2013-03-24 03:00:00,
2013-03-23 23:05:00,43.0,35.3,29.92,ENE,63,0.0,1.0,74,0.00,,---,0.00,VWS V14.01,2013-03-24 03:05:00,
2013-03-23 23:10:00,43.1,36.4,29.91,ENE,63,1.0,1.0,77,0.00,,---,0.00,VWS V14.01,2013-03-24 03:10:00,
2013-03-23 23:15:00,43.4,35.7,29.91,ENE,63,0.0,2.0,74,0.00,,---,0.00,VWS V14.01,2013-03-24 03:15:00,
2013-03-23 23:20:00,43.7,36.0,29.91,ENE,63,0.0,3.0,74,0.00,,---,0.00,VWS V14.01,2013-03-24 03:20:00,
2013-03-23 23:25:00,44.1,36.4,29.90,ENE,63,2.0,3.0,74,0.00,,---,0.00,VWS V14.01,2013-03-24 03:25:00,
2013-03-23 23:30:00,44.0,35.2,29.90,ENE,63,2.0,3.0,71,0.00,,---,0.00,VWS V14.01,2013-03-24 03:30:00,
2013-03-23 23:35:00,43.8,35.4,29.89,ENE,63,0.0,4.0,72,0.00,,---,0.00,VWS V14.01,2013-03-24 03:35:00,
2013-03-23 23:40:00,43.4,34.6,29.89,ENE,63,0.0,0.0,71,0.00,,---,0.00,VWS V14.01,2013-03-24 03:40:00,
2013-03-23 23:45:00,43.1,35.0,29.90,ENE,63,1.0,2.0,73,0.00,,---,0.00,VWS V14.01,2013-03-24 03:45:00,
2013-03-23 23:50:00,42.7,34.3,29.90,ENE,63,0.0,1.0,72,0.00,,---,0.00,VWS V14.01,2013-03-24 03:50:00,
2013-03-23 23:55:00,42.7,34.3,29.89,ENE,63,0.0,0.0,72,0.00,,---,0.00,VWS V14.01,2013-03-24 03:55:00,